Twentynine Palms, CA

8:48 AM PDT on April 19, 2018 (GMT -0700)
29 RV | | Change Station
Active Advisory: Wind Advisory

Elev 1804 ft 34.17 °N, 116.04 °W | Updated 11 seconds ago

Clear
Clear
62.4 °F
Feels Like 62.4 °F
N
12.0
Wind Variable Wind from NW

Today
High -- | Low -- °F
--% Chance of Precip.
Yesterday
High -- | Low -- °F
Precip. -- in
Pressure 29.88 in
Visibility 7.0 miles
Clouds Clear
Dew Point 24 °F
Humidity 22%
Rainfall 0.00 in
Snow Depth Not available.
6:08 AM 7:18 PM
Waxing Crescent, 16% visible
METAR KNXP 191456Z AUTO 20007KT 7SM CLR 12/M06 A2995 RMK AO2 SLP118 T01171061 51017
Pressure 29.88 in
Visibility 7.0 miles
Clouds Clear
Dew Point 24 °F
Humidity 22%
Rainfall 0.00 in
Snow Depth Not available.
6:08 AM 7:18 PM
Waxing Crescent, 16% visible
METAR KNXP 191456Z AUTO 20007KT 7SM CLR 12/M06 A2995 RMK AO2 SLP118 T01171061 51017

Get Your Daily Forecast Email!

Thanks for signing up!

Be on the lookout for a verification email in your inbox.

You'll start receiving severe weather alerts in your inbox..

×

10-Day Weather Forecast

Almanac

Astronomy

Apr. 19, 2018 Rise Set
Actual Time
Civil Twilight
Nautical Twilight
Astronomical Twilight
Moon
Length of Visible Light
Length of Day
Tomorrow will be .
, % of the Moon is Illuminated

Today's Extremes

State Highs State Lows

Community

WunderPhotos

Category 6

Welcome to Category 6. This is the collective home for Weather Underground's featured writeups by Dr. Jeff Masters (right), Bob Henson (left), Chris Burt, and other regular contributors.

Nearby

Air Quality

  Air Quality AQ Index Pollutant
Not available.

Snow Depth

Station Depth Elevation

Earthquake Activity

City Distance Mag. Time & Date
Minimum magnitude displayed is 2.5.

Coastal Water Temperatures

Place Temperature

Stations

Nearby Weather Stations

Station Location Temp. Windchill Dew Point Humidity Wind Precip. Elev Updated Type
                   

Watches & Warnings

Wind Advisory
Issued: 2:58 AM PDT Apr. 19, 2018 – National Weather Service

... Wind Advisory remains in effect from 9 am this morning to
11 PM PDT this evening...

* timing... wind speeds will increase this morning, peak during the
afternoon before decreasing this evening.

* Winds... west winds 25 to 35 mph with gusts around 45 mph.

* Impacts... strong winds gusting over 40 mph can make driving
difficult... especially for high profile vehicles.

Precautionary/preparedness actions...

Motorcycle riders and drivers of vans... campers... trailers and
any other high profile vehicle should be alert to the danger of
these strong winds.